createdAt,value
2022-09-06T00:01:11.201Z,16.50
2022-09-06T00:03:40.125Z,16.50
2022-09-06T00:06:12.568Z,16.50
2022-09-06T00:08:41.824Z,16.50
2022-09-06T00:11:10.870Z,16.60
2022-09-06T00:13:39.816Z,16.60
2022-09-06T00:16:09.943Z,16.60
2022-09-06T00:18:38.440Z,16.60
2022-09-06T00:21:17.286Z,16.60
2022-09-06T00:23:45.884Z,16.60
2022-09-06T00:26:14.933Z,16.60
2022-09-06T00:28:43.898Z,16.60
2022-09-06T00:31:13.987Z,16.50
2022-09-06T00:33:42.529Z,16.60
2022-09-06T00:36:11.777Z,16.60
2022-09-06T00:38:42.679Z,16.60
2022-09-06T00:41:13.609Z,16.60
2022-09-06T00:43:42.945Z,16.60
2022-09-06T00:46:16.268Z,16.70
2022-09-06T00:48:46.648Z,16.70
2022-09-06T00:51:17.822Z,16.70
2022-09-06T00:53:48.092Z,16.60
2022-09-06T00:56:16.735Z,16.70
2022-09-06T00:58:45.675Z,16.60
2022-09-06T01:01:14.270Z,16.70
2022-09-06T01:03:43.466Z,16.60
2022-09-06T01:06:24.660Z,16.60
2022-09-06T01:09:05.282Z,16.50
2022-09-06T01:11:55.527Z,16.50
2022-09-06T01:14:36.844Z,16.50
2022-09-06T01:17:17.773Z,16.50
2022-09-06T01:20:10.679Z,16.50
2022-09-06T01:23:00.961Z,16.40
2022-09-06T01:25:39.841Z,16.40
2022-09-06T01:28:28.991Z,16.30
2022-09-06T01:31:06.451Z,16.30
2022-09-06T01:33:42.461Z,16.30
2022-09-06T01:36:15.104Z,16.20
2022-09-06T01:38:43.661Z,16.20
2022-09-06T01:41:12.613Z,16.20
2022-09-06T01:43:47.025Z,16.20
2022-09-06T01:46:20.672Z,16.10
2022-09-06T01:49:14.886Z,16.10
2022-09-06T01:51:54.255Z,16.10
2022-09-06T01:54:41.573Z,16.20
2022-09-06T01:57:22.270Z,16.20
2022-09-06T02:00:06.447Z,16.20
2022-09-06T02:02:54.538Z,16.20
2022-09-06T02:05:28.885Z,16.20
2022-09-06T02:08:01.952Z,16.10
2022-09-06T02:10:36.110Z,16.10
2022-09-06T02:13:08.617Z,16.00
2022-09-06T02:15:43.989Z,16.00
2022-09-06T02:18:16.449Z,15.90
2022-09-06T02:20:50.600Z,15.90
2022-09-06T02:23:20.272Z,15.80
2022-09-06T02:25:54.361Z,15.80
2022-09-06T02:28:24.370Z,15.80
2022-09-06T02:30:59.940Z,15.70
2022-09-06T02:33:33.050Z,15.70
2022-09-06T02:36:06.676Z,15.60
2022-09-06T02:38:37.972Z,15.60
2022-09-06T02:41:07.919Z,15.60
2022-09-06T02:43:36.471Z,15.60
2022-09-06T02:46:06.480Z,15.60
2022-09-06T02:48:34.986Z,15.60
2022-09-06T02:51:04.877Z,15.60
2022-09-06T02:53:33.786Z,15.60
2022-09-06T02:56:02.881Z,15.60
2022-09-06T02:58:31.541Z,15.60
2022-09-06T03:01:00.183Z,15.50
2022-09-06T03:03:30.408Z,15.50
2022-09-06T03:05:58.823Z,15.50
2022-09-06T03:08:33.707Z,15.50
2022-09-06T03:11:02.955Z,15.40
2022-09-06T03:13:31.449Z,15.50
2022-09-06T03:16:01.204Z,15.50
2022-09-06T03:18:32.258Z,15.50
2022-09-06T03:21:01.217Z,15.50
2022-09-06T03:23:31.095Z,15.50
2022-09-06T03:25:59.695Z,15.40
2022-09-06T03:28:28.736Z,15.40
2022-09-06T03:30:57.489Z,15.40
2022-09-06T03:33:25.959Z,15.40
2022-09-06T03:35:58.410Z,15.30
2022-09-06T03:38:28.578Z,15.30
2022-09-06T03:40:57.304Z,15.30
2022-09-06T03:43:27.060Z,15.30
2022-09-06T03:45:57.662Z,15.30
2022-09-06T03:48:28.812Z,15.20
2022-09-06T03:51:00.175Z,15.30
2022-09-06T03:53:29.985Z,15.30
2022-09-06T03:55:59.937Z,15.40
2022-09-06T03:58:31.937Z,15.40
2022-09-06T04:01:05.700Z,15.40
2022-09-06T04:03:34.945Z,15.40
2022-09-06T04:06:06.081Z,15.40
2022-09-06T04:08:35.392Z,15.50
2022-09-06T04:11:04.310Z,15.40
2022-09-06T04:13:33.989Z,15.50
2022-09-06T04:16:03.382Z,15.50
2022-09-06T04:18:31.935Z,15.50
2022-09-06T04:21:00.548Z,15.50
2022-09-06T04:23:31.163Z,15.50
2022-09-06T04:26:00.762Z,15.50
2022-09-06T04:28:29.697Z,15.50
2022-09-06T04:31:03.932Z,15.50
2022-09-06T04:33:34.423Z,15.60
2022-09-06T04:36:04.558Z,15.50
2022-09-06T04:38:37.694Z,15.50
2022-09-06T04:41:07.264Z,15.50
2022-09-06T04:43:35.941Z,15.60
2022-09-06T04:46:06.423Z,15.60
2022-09-06T04:48:35.197Z,15.60
2022-09-06T04:51:03.787Z,15.70
2022-09-06T04:53:33.606Z,15.80
2022-09-06T04:56:02.106Z,15.90
2022-09-06T04:58:30.956Z,16.00
2022-09-06T05:00:59.597Z,16.10
2022-09-06T05:03:28.069Z,16.20
2022-09-06T05:06:06.009Z,16.30
2022-09-06T05:08:40.237Z,16.40
2022-09-06T05:11:09.471Z,16.40
2022-09-06T05:13:38.100Z,16.40
2022-09-06T05:16:08.812Z,16.50
2022-09-06T05:18:37.415Z,16.50
2022-09-06T05:21:06.289Z,16.50
2022-09-06T05:23:36.392Z,16.60
2022-09-06T05:26:05.210Z,16.70
2022-09-06T05:28:33.748Z,16.70
2022-09-06T05:31:10.787Z,16.80
2022-09-06T05:33:39.280Z,16.90
2022-09-06T05:36:08.793Z,17.00
2022-09-06T05:38:38.781Z,17.10
2022-09-06T05:41:07.359Z,17.20
2022-09-06T05:43:35.850Z,17.30
2022-09-06T05:46:05.118Z,17.40
2022-09-06T05:48:37.063Z,17.50
2022-09-06T05:51:08.293Z,17.60
2022-09-06T05:53:39.920Z,17.70
2022-09-06T05:56:09.385Z,17.80
2022-09-06T05:58:38.968Z,17.90
2022-09-06T06:01:17.373Z,18.00
2022-09-06T06:03:52.689Z,18.00
2022-09-06T06:06:21.839Z,18.10
2022-09-06T06:08:52.240Z,18.20
2022-09-06T06:11:21.017Z,18.30
2022-09-06T06:13:50.085Z,18.50
2022-09-06T06:16:19.667Z,18.70
2022-09-06T06:18:51.940Z,18.90
2022-09-06T06:21:23.019Z,19.20
2022-09-06T06:23:54.967Z,19.30
2022-09-06T06:26:24.506Z,19.50
2022-09-06T06:28:53.453Z,19.60
2022-09-06T06:31:22.902Z,19.80
2022-09-06T06:33:52.099Z,19.80
2022-09-06T06:36:22.877Z,19.90
2022-09-06T06:38:54.882Z,19.90
2022-09-06T06:41:25.269Z,20.00
2022-09-06T06:43:54.315Z,20.00
2022-09-06T06:46:24.969Z,20.10
2022-09-06T06:48:55.107Z,20.20
2022-09-06T06:51:25.941Z,20.40
2022-09-06T06:53:57.080Z,20.50
2022-09-06T06:56:28.255Z,20.60
2022-09-06T06:58:58.536Z,20.80
2022-09-06T07:01:28.958Z,21.10
2022-09-06T07:03:58.213Z,21.40
2022-09-06T07:09:20.742Z,21.90
2022-09-06T07:11:50.135Z,22.20
2022-09-06T07:14:19.226Z,22.40
2022-09-06T07:16:47.833Z,22.60
2022-09-06T07:22:05.763Z,22.80
2022-09-06T07:24:36.340Z,22.90
2022-09-06T07:29:53.414Z,23.00
2022-09-06T07:32:21.981Z,23.10
2022-09-06T07:34:50.486Z,23.20
2022-09-06T07:37:18.983Z,23.30
2022-09-06T07:39:48.952Z,23.40
2022-09-06T07:42:17.450Z,23.40
2022-09-06T07:44:45.831Z,23.40
2022-09-06T07:53:10.913Z,23.40
2022-09-06T07:55:42.858Z,23.40
2022-09-06T07:58:11.344Z,23.30
2022-09-06T08:00:41.357Z,23.40
2022-09-06T08:03:10.266Z,23.40
2022-09-06T08:11:17.496Z,24.10
2022-09-06T08:13:46.242Z,24.40
2022-09-06T08:16:16.343Z,24.60
2022-09-06T08:18:45.254Z,24.80
2022-09-06T08:21:16.060Z,25.00
2022-09-06T08:23:49.092Z,25.00
2022-09-06T08:26:20.840Z,25.00
2022-09-06T08:28:49.792Z,25.00
2022-09-06T08:31:19.819Z,24.90
2022-09-06T08:33:48.396Z,24.90
2022-09-06T08:36:17.291Z,25.00
2022-09-06T08:38:46.079Z,25.20
2022-09-06T08:41:26.087Z,25.40
2022-09-06T08:46:55.630Z,25.60
2022-09-06T08:49:25.614Z,25.80
2022-09-06T08:52:18.185Z,25.80
2022-09-06T08:54:53.900Z,25.80
2022-09-06T08:57:39.959Z,26.00
2022-09-06T09:00:12.290Z,26.20
2022-09-06T09:02:46.566Z,26.20
2022-09-06T09:05:23.367Z,26.00
2022-09-06T09:08:03.051Z,25.70
2022-09-06T09:10:35.621Z,25.60
2022-09-06T09:13:08.876Z,25.40
2022-09-06T09:15:40.445Z,25.30
2022-09-06T09:18:09.559Z,25.10
2022-09-06T09:20:39.488Z,25.10
2022-09-06T09:23:08.082Z,25.10
2022-09-06T09:25:39.705Z,25.20
2022-09-06T09:28:17.425Z,25.40
2022-09-06T09:30:49.600Z,25.70
2022-09-06T09:33:28.625Z,26.10
2022-09-06T09:35:59.412Z,26.40
2022-09-06T09:38:29.529Z,26.60
2022-09-06T09:41:00.923Z,26.80
2022-09-06T09:43:32.635Z,26.80
2022-09-06T09:46:13.328Z,26.80
2022-09-06T09:48:42.795Z,26.80
2022-09-06T09:51:27.124Z,26.80
2022-09-06T09:53:57.843Z,26.70
2022-09-06T09:56:36.324Z,26.70
2022-09-06T09:59:17.579Z,26.70
2022-09-06T10:01:46.019Z,26.70
2022-09-06T10:07:14.618Z,26.60
2022-09-06T10:09:46.323Z,26.60
2022-09-06T10:12:20.124Z,26.70
2022-09-06T10:14:50.720Z,26.70
2022-09-06T10:17:29.810Z,26.70
2022-09-06T10:20:01.049Z,26.90
2022-09-06T10:22:31.297Z,27.00
2022-09-06T10:25:35.111Z,27.00
2022-09-06T10:28:30.533Z,27.00
2022-09-06T10:31:10.289Z,27.00
2022-09-06T10:33:47.642Z,27.10
2022-09-06T10:36:20.114Z,27.20
2022-09-06T10:38:55.206Z,27.30
2022-09-06T10:41:44.039Z,27.50
2022-09-06T10:44:27.603Z,27.60
2022-09-06T10:47:10.250Z,27.70
2022-09-06T10:49:39.766Z,27.80
2022-09-06T10:52:12.620Z,28.00
2022-09-06T10:54:47.054Z,28.30
2022-09-06T11:00:13.746Z,28.90
2022-09-06T11:05:45.625Z,29.90
2022-09-06T11:11:18.211Z,30.20
2022-09-06T11:13:47.456Z,30.20
2022-09-06T11:16:22.232Z,30.30
2022-09-06T11:18:57.817Z,30.50
2022-09-06T11:21:55.640Z,30.70
2022-09-06T11:24:33.567Z,30.70
2022-09-06T11:27:07.064Z,30.80
2022-09-06T11:29:40.346Z,31.00
2022-09-06T11:32:33.049Z,31.20
2022-09-06T11:35:07.450Z,31.40
2022-09-06T11:37:39.613Z,31.60
2022-09-06T11:40:30.399Z,31.80
2022-09-06T11:43:15.051Z,31.90
2022-09-06T11:45:49.459Z,31.90
2022-09-06T11:48:50.875Z,32.00
2022-09-06T11:51:36.570Z,32.10
2022-09-06T11:54:22.054Z,32.00
2022-09-06T11:56:56.907Z,32.00
2022-09-06T11:59:38.205Z,31.90
2022-09-06T12:02:08.040Z,31.80
2022-09-06T12:05:10.026Z,31.70
2022-09-06T12:08:00.251Z,31.60
2022-09-06T12:10:57.206Z,31.60
2022-09-06T12:14:00.015Z,31.50
2022-09-06T12:17:09.867Z,31.30
2022-09-06T12:19:47.434Z,31.10
2022-09-06T12:22:54.553Z,31.00
2022-09-06T12:26:05.765Z,30.90
2022-09-06T12:28:45.662Z,31.00
2022-09-06T12:31:37.907Z,30.80
2022-09-06T12:34:25.645Z,30.50
2022-09-06T12:36:58.874Z,30.20
2022-09-06T12:39:28.146Z,30.00
2022-09-06T12:41:58.655Z,29.80
2022-09-06T12:44:34.788Z,29.70
2022-09-06T12:47:10.897Z,29.60
2022-09-06T12:49:39.519Z,29.50
2022-09-06T12:52:10.642Z,29.50
2022-09-06T12:54:47.793Z,29.50
2022-09-06T12:57:20.453Z,29.60
2022-09-06T12:59:52.176Z,29.80
2022-09-06T13:02:25.392Z,30.00
2022-09-06T13:04:57.406Z,30.10
2022-09-06T13:07:29.076Z,30.20
2022-09-06T13:09:58.547Z,30.30
2022-09-06T13:12:29.737Z,30.30
2022-09-06T13:15:05.228Z,30.30
2022-09-06T13:17:33.846Z,30.40
2022-09-06T13:20:13.266Z,30.40
2022-09-06T13:22:47.457Z,30.50
2022-09-06T13:25:20.817Z,30.50
2022-09-06T13:27:51.233Z,30.50
2022-09-06T13:30:38.627Z,30.50
2022-09-06T13:33:08.473Z,30.60
2022-09-06T13:35:39.538Z,30.60
2022-09-06T13:38:32.297Z,30.50
2022-09-06T13:41:17.244Z,30.60
2022-09-06T13:43:48.081Z,30.60
2022-09-06T13:46:18.029Z,30.70
2022-09-06T13:48:46.613Z,30.70
2022-09-06T13:51:15.018Z,30.70
2022-09-06T13:53:43.416Z,30.70
2022-09-06T13:56:12.055Z,30.70
2022-09-06T13:58:40.448Z,30.80
2022-09-06T14:01:10.578Z,30.80
2022-09-06T14:03:43.042Z,30.80
2022-09-06T14:06:12.604Z,30.80
2022-09-06T14:09:05.792Z,30.80
2022-09-06T14:11:30.014Z,30.80
2022-09-06T14:13:58.534Z,30.80
2022-09-06T14:16:27.124Z,30.80
2022-09-06T14:18:57.137Z,30.80
2022-09-06T14:21:25.770Z,30.70
2022-09-06T14:23:54.746Z,30.80
2022-09-06T14:26:24.426Z,30.80
2022-09-06T14:28:52.962Z,30.90
2022-09-06T14:31:23.276Z,31.00
2022-09-06T14:33:51.751Z,31.20
2022-09-06T14:36:24.743Z,31.20
2022-09-06T14:38:53.602Z,31.20
2022-09-06T14:41:22.216Z,31.00
2022-09-06T14:43:52.429Z,30.80
2022-09-06T14:46:22.614Z,30.80
2022-09-06T14:48:58.377Z,30.80
2022-09-06T14:51:28.551Z,30.80
2022-09-06T14:53:59.375Z,30.80
2022-09-06T14:56:28.425Z,30.80
2022-09-06T14:58:59.909Z,30.80
2022-09-06T15:01:34.117Z,30.80
2022-09-06T15:04:07.070Z,30.70
2022-09-06T15:06:40.358Z,30.70
2022-09-06T15:09:11.392Z,30.70
2022-09-06T15:11:42.143Z,30.60
2022-09-06T15:14:15.100Z,30.60
2022-09-06T15:16:43.731Z,30.60
2022-09-06T15:19:12.844Z,30.60
2022-09-06T15:21:43.437Z,30.60
2022-09-06T15:24:12.430Z,30.60
2022-09-06T15:26:41.438Z,30.50
2022-09-06T15:29:10.928Z,30.50
2022-09-06T15:31:40.368Z,30.50
2022-09-06T15:34:09.813Z,30.40
2022-09-06T15:36:38.751Z,30.30
2022-09-06T15:39:08.865Z,30.10
2022-09-06T15:41:40.397Z,30.00
2022-09-06T15:44:11.915Z,29.90
2022-09-06T15:46:46.904Z,29.80
2022-09-06T15:49:17.239Z,29.70
2022-09-06T15:51:45.987Z,29.60
2022-09-06T15:54:18.154Z,29.60
2022-09-06T15:56:46.988Z,29.60
2022-09-06T15:59:15.484Z,29.60
2022-09-06T16:01:44.040Z,29.50
2022-09-06T16:04:12.538Z,29.40
2022-09-06T16:06:43.145Z,29.30
2022-09-06T16:09:14.697Z,29.20
2022-09-06T16:11:45.080Z,29.20
2022-09-06T16:14:15.529Z,29.10
2022-09-06T16:16:45.008Z,29.00
2022-09-06T16:19:14.466Z,28.90
2022-09-06T16:21:44.957Z,28.80
2022-09-06T16:24:14.993Z,28.70
2022-09-06T16:26:47.412Z,28.60
2022-09-06T16:29:18.259Z,28.60
2022-09-06T16:31:47.648Z,28.50
2022-09-06T16:34:16.681Z,28.40
2022-09-06T16:36:45.263Z,28.20
2022-09-06T16:39:13.778Z,28.10
2022-09-06T16:41:47.462Z,28.00
2022-09-06T16:44:17.858Z,27.90
2022-09-06T16:46:47.982Z,27.80
2022-09-06T16:49:17.607Z,27.70
2022-09-06T16:51:46.481Z,27.60
2022-09-06T16:54:15.823Z,27.50
2022-09-06T16:56:46.549Z,27.40
2022-09-06T16:59:17.358Z,27.40
2022-09-06T17:01:46.248Z,27.40
2022-09-06T17:04:15.748Z,27.30
2022-09-06T17:06:45.885Z,27.30
2022-09-06T17:09:16.470Z,27.20
2022-09-06T17:11:49.901Z,27.20
2022-09-06T17:14:18.944Z,27.10
2022-09-06T17:17:06.188Z,27.00
2022-09-06T17:19:40.369Z,27.00
2022-09-06T17:22:10.075Z,26.90
2022-09-06T17:24:38.789Z,26.80
2022-09-06T17:27:09.127Z,26.70
2022-09-06T17:29:37.682Z,26.50
2022-09-06T17:32:10.150Z,26.40
2022-09-06T17:34:39.389Z,26.30
2022-09-06T17:37:07.976Z,26.10
2022-09-06T17:39:36.603Z,26.00
2022-09-06T17:42:05.504Z,25.80
2022-09-06T17:44:35.434Z,25.60
2022-09-06T17:47:13.328Z,25.40
2022-09-06T17:49:42.615Z,25.30
2022-09-06T17:52:11.636Z,25.10
2022-09-06T17:54:40.247Z,24.90
2022-09-06T17:57:08.785Z,24.80
2022-09-06T17:59:39.521Z,24.60
2022-09-06T18:02:08.937Z,24.50
2022-09-06T18:04:37.581Z,24.30
2022-09-06T18:07:11.355Z,24.10
2022-09-06T18:09:40.743Z,24.10
2022-09-06T18:12:09.485Z,23.90
2022-09-06T18:14:39.870Z,23.90
2022-09-06T18:17:09.547Z,23.70
2022-09-06T18:19:39.290Z,23.60
2022-09-06T18:22:07.829Z,23.50
2022-09-06T18:24:36.390Z,23.40
2022-09-06T18:27:04.967Z,23.20
2022-09-06T18:29:33.574Z,23.10
2022-09-06T18:32:04.464Z,23.10
2022-09-06T18:34:33.130Z,23.00
2022-09-06T18:37:01.831Z,22.90
2022-09-06T18:39:30.371Z,22.90
2022-09-06T18:42:01.559Z,22.70
2022-09-06T18:44:33.072Z,22.60
2022-09-06T18:47:05.662Z,22.50
2022-09-06T18:49:34.890Z,22.40
2022-09-06T18:52:04.567Z,22.30
2022-09-06T18:54:33.852Z,22.30
2022-09-06T18:57:02.437Z,22.10
2022-09-06T18:59:30.960Z,22.00
2022-09-06T19:01:59.490Z,22.00
2022-09-06T19:04:29.847Z,21.90
2022-09-06T19:06:58.329Z,21.80
2022-09-06T19:09:26.903Z,21.80
2022-09-06T19:11:55.657Z,21.70
2022-09-06T19:14:24.270Z,21.70
2022-09-06T19:16:54.248Z,21.60
2022-09-06T19:19:23.435Z,21.50
2022-09-06T19:21:53.406Z,21.30
2022-09-06T19:24:24.643Z,21.20
2022-09-06T19:26:55.293Z,21.10
2022-09-06T19:29:24.040Z,21.10
2022-09-06T19:31:53.111Z,21.00
2022-09-06T19:34:22.265Z,20.90
2022-09-06T19:36:55.215Z,20.80
2022-09-06T19:39:31.142Z,20.80
2022-09-06T19:42:02.272Z,20.70
2022-09-06T19:44:30.730Z,20.60
2022-09-06T19:47:00.036Z,20.60
2022-09-06T19:49:29.588Z,20.50
2022-09-06T19:51:59.751Z,20.40
2022-09-06T19:54:28.568Z,20.40
2022-09-06T19:56:57.020Z,20.30
2022-09-06T19:59:25.610Z,20.20
2022-09-06T20:01:54.105Z,20.20
2022-09-06T20:04:22.781Z,20.10
2022-09-06T20:06:51.295Z,20.10
2022-09-06T20:09:21.330Z,20.00
2022-09-06T20:11:50.008Z,19.90
2022-09-06T20:14:19.072Z,19.80
2022-09-06T20:16:47.799Z,19.80
2022-09-06T20:19:16.978Z,19.70
2022-09-06T20:21:45.413Z,19.70
2022-09-06T20:24:14.081Z,19.80
2022-09-06T20:26:44.163Z,19.90
2022-09-06T20:29:12.697Z,20.00
2022-09-06T20:31:41.282Z,20.00
2022-09-06T20:34:16.162Z,19.90
2022-09-06T20:36:44.761Z,19.90
2022-09-06T20:39:13.364Z,19.80
2022-09-06T20:41:43.528Z,19.80
2022-09-06T20:44:12.107Z,19.70
2022-09-06T20:46:40.807Z,19.60
2022-09-06T20:49:09.382Z,19.50
2022-09-06T20:51:40.383Z,19.50
2022-09-06T20:54:08.800Z,19.40
2022-09-06T20:56:39.727Z,19.30
2022-09-06T20:59:11.485Z,19.20
2022-09-06T21:01:42.593Z,19.20
2022-09-06T21:04:12.640Z,19.10
2022-09-06T21:06:41.960Z,19.10
2022-09-06T21:09:13.470Z,19.00
2022-09-06T21:11:42.748Z,19.00
2022-09-06T21:14:13.826Z,18.90
2022-09-06T21:16:43.530Z,18.90
2022-09-06T21:19:13.292Z,18.90
2022-09-06T21:21:42.636Z,18.90
2022-09-06T21:24:12.132Z,18.80
2022-09-06T21:26:41.009Z,18.80
2022-09-06T21:29:09.999Z,18.70
2022-09-06T21:31:40.135Z,18.70
2022-09-06T21:34:16.936Z,18.70
2022-09-06T21:36:46.269Z,18.70
2022-09-06T21:39:14.964Z,18.60
2022-09-06T21:41:44.531Z,18.60
2022-09-06T21:44:13.984Z,18.60
2022-09-06T21:46:44.533Z,18.50
2022-09-06T21:49:14.472Z,18.50
2022-09-06T21:51:43.846Z,18.50
2022-09-06T21:54:12.494Z,18.50
2022-09-06T21:56:41.424Z,18.50
2022-09-06T21:59:11.034Z,18.50
2022-09-06T22:01:43.940Z,18.50
2022-09-06T22:04:15.483Z,18.50
2022-09-06T22:06:43.918Z,18.40
2022-09-06T22:09:13.739Z,18.30
2022-09-06T22:11:43.906Z,18.20
2022-09-06T22:14:14.885Z,18.20
2022-09-06T22:16:43.721Z,18.20
2022-09-06T22:19:12.677Z,18.20
2022-09-06T22:21:42.622Z,18.10
2022-09-06T22:24:12.728Z,18.10
2022-09-06T22:26:42.427Z,18.10
2022-09-06T22:29:13.524Z,18.00
2022-09-06T22:31:42.150Z,18.00
2022-09-06T22:34:11.636Z,18.00
2022-09-06T22:36:40.761Z,18.00
2022-09-06T22:39:10.747Z,17.90
2022-09-06T22:41:39.681Z,17.90
2022-09-06T22:44:08.280Z,17.90
2022-09-06T22:46:37.718Z,17.80
2022-09-06T22:49:06.480Z,17.80
2022-09-06T22:51:34.940Z,17.80
2022-09-06T22:54:04.723Z,17.80
2022-09-06T22:56:35.785Z,17.70
2022-09-06T22:59:04.539Z,17.70
2022-09-06T23:01:38.864Z,17.60
2022-09-06T23:04:08.155Z,17.60
2022-09-06T23:06:37.605Z,17.60
2022-09-06T23:09:06.744Z,17.60
2022-09-06T23:11:37.023Z,17.60
2022-09-06T23:14:06.118Z,17.60
2022-09-06T23:16:34.737Z,17.60
2022-09-06T23:19:03.419Z,17.50
2022-09-06T23:21:32.544Z,17.50
2022-09-06T23:24:01.023Z,17.50
2022-09-06T23:26:31.894Z,17.50
2022-09-06T23:29:01.852Z,17.60
2022-09-06T23:31:32.798Z,17.70
2022-09-06T23:34:02.884Z,17.70
2022-09-06T23:36:31.859Z,17.70
2022-09-06T23:39:02.190Z,17.80
2022-09-06T23:41:30.632Z,17.70
2022-09-06T23:43:59.175Z,17.70
2022-09-06T23:46:29.365Z,17.60
2022-09-06T23:48:58.048Z,17.60
2022-09-06T23:51:26.609Z,17.60
2022-09-06T23:53:55.211Z,17.50
2022-09-06T23:56:23.674Z,17.50
2022-09-06T23:58:52.237Z,17.50
